Time;durP1;ratioP1;P1;durP2;ratioP2;P2;SDS_P1;SDS_P2;PMS_P1;PMS_P2;Temp;Humidity;BMP_temperature;BMP_pressure;BME280_temperature;BME280_humidity;BME280_pressure;Samples;Min_cycle;Max_cycle;Signal;HPM_P1;HPM_P2
2022/01/13 00:02:03;;;;;;;82.30;14.07;;;;;;;;;;6277333;22;20012;-61
2022/01/13 00:04:29;;;;;;;72.90;12.95;;;;;;;;;;6277144;22;20360;-61
2022/01/13 00:06:55;;;;;;;77.53;14.50;;;;;;;;;;6251009;22;20026;-61
2022/01/13 00:09:22;;;;;;;42.90;10.90;;;;;;;;;;6278260;22;20019;-60
2022/01/13 00:11:49;;;;;;;49.50;11.15;;;;;;;;;;6279347;22;20431;-61
2022/01/13 00:17:05;;;;;;;48.72;12.90;;;;;;;;;;6279371;22;20069;-60
2022/01/13 00:19:46;;;;;;;75.53;13.60;;;;;;;;;;6278176;22;20502;-60
2022/01/13 00:22:26;;;;;;;50.83;11.98;;;;;;;;;;6280384;22;20344;-60
2022/01/13 00:24:57;;;;;;;63.13;13.10;;;;;;;;;;6279635;22;20019;-60
2022/01/13 00:27:25;;;;;;;;;;;4.80;99.90;;;;;;6252432;22;20016;-61
2022/01/13 00:29:51;;;;;;;64.25;13.02;;;;;;;;;;6226854;22;19911;-60
2022/01/13 00:32:19;;;;;;;41.60;11.77;;;;;;;;;;6279200;22;20024;-60
2022/01/13 00:34:45;;;;;;;59.80;13.50;;;;;;;;;;6278770;22;20042;-60
2022/01/13 00:37:11;;;;;;;60.10;12.75;;;;;;;;;;6279841;22;20015;-60
2022/01/13 00:39:38;;;;;;;61.72;14.25;;;;;;;;;;6278577;22;20174;-61
2022/01/13 00:42:04;;;;;;;46.55;11.95;;;;;;;;;;6278755;22;20444;-61
2022/01/13 00:44:35;;;;;;;80.13;13.68;;;;;;;;;;6279034;22;20082;-60
2022/01/13 00:47:01;;;;;;;79.55;13.60;;;;;;;;;;6279809;22;20083;-60
2022/01/13 00:49:28;;;;;;;87.68;15.38;;;;;;;;;;6279021;22;20016;-61
2022/01/13 00:51:54;;;;;;;66.88;12.63;;;;;;;;;;6252935;22;20317;-60
2022/01/13 00:54:20;;;;;;;55.75;12.18;;;;;;;;;;6278220;22;20099;-61
2022/01/13 00:56:46;;;;;;;79.68;14.77;;;;;;;;;;6279038;22;20015;-61
2022/01/13 00:59:13;;;;;;;75.13;12.50;;;;;;;;;;6278667;22;20054;-60
2022/01/13 01:01:41;;;;;;;59.28;13.40;;;;;;;;;;6252586;22;20043;-60
2022/01/13 01:04:07;;;;;;;87.70;14.23;;;;;;;;;;6278583;22;20016;-60
2022/01/13 01:06:34;;;;;;;101.60;14.65;;;;;;;;;;6278877;22;20343;-60
2022/01/13 01:09:00;;;;;;;84.22;13.82;;;;;;;;;;6278873;22;20041;-60
2022/01/13 01:11:26;;;;;;;80.88;13.25;;;;;;;;;;6251205;22;20317;-60
2022/01/13 01:13:56;;;;;;;70.93;11.00;;;;;;;;;;6278420;22;20026;-60
2022/01/13 01:16:23;;;;;;;80.57;14.05;;;;;;;;;;6278479;22;20015;-60
2022/01/13 01:19:12;;;;;;;104.10;14.70;;;;;;;;;;6278162;22;20016;-60
2022/01/13 01:21:53;;;;;;;71.97;13.93;;;;;;;;;;6251130;22;20047;-61
2022/01/13 01:26:50;;;;;;;84.30;15.63;;;;;;;;;;6278732;22;20024;-61
2022/01/13 01:31:47;;;;;;;54.20;13.48;;;;;;;;;;6279642;22;20020;-60
2022/01/13 01:36:43;;;;;;;67.53;13.85;;;;;;;;;;6278599;22;20022;-61
2022/01/13 01:39:09;;;;;;;126.30;17.02;;;;;;;;;;6278605;22;20043;-61
2022/01/13 01:41:37;;;;;;;98.60;15.25;;;;;;;;;;6277792;22;20452;-61
2022/01/13 01:44:10;;;;;;;102.20;16.85;;;;;;;;;;6277715;22;20015;-61
2022/01/13 01:46:38;;;;;;;52.15;13.70;;;;;;;;;;6278588;22;20011;-61
2022/01/13 01:49:14;;;;;;;108.88;17.35;;;;;;;;;;6278500;22;20016;-61
2022/01/13 01:51:40;;;;;;;91.18;14.90;;;;;;;;;;6226101;22;20011;-61
2022/01/13 01:54:06;;;;;;;80.82;15.13;;;;;;;;;;6251055;22;20011;-61
2022/01/13 01:56:32;;;;;;;81.90;14.82;;;;;;;;;;6278785;22;20016;-61
2022/01/13 01:59:02;;;;;;;89.68;17.15;;;;;;;;;;6278029;22;20095;-61
2022/01/13 02:01:28;;;;;;;64.68;14.30;;;;;;;;;;6278394;22;20363;-61
2022/01/13 02:03:54;;;;;;;78.40;14.57;;;;;;;;;;6277760;22;20057;-60
2022/01/13 02:06:20;;;;;;;61.60;14.48;;;;;;;;;;6278291;22;20090;-60
2022/01/13 02:08:46;;;;;;;61.85;13.98;;;;;;;;;;6278279;22;20066;-60
2022/01/13 02:11:12;;;;;;;68.82;13.90;;;;;;;;;;6251035;22;20360;-61
2022/01/13 02:13:46;;;;;;;84.03;14.02;;;;;;;;;;6277512;22;20023;-60
2022/01/13 02:16:36;;;;;;;82.35;15.32;;;;;;;;;;6251597;22;20012;-61
2022/01/13 02:18:58;;;;;;;63.30;13.63;;;;;;;;;;6277637;22;20019;-60
2022/01/13 02:21:26;;;;;;;59.63;13.63;;;;;;;;;;6278184;22;20012;-60
2022/01/13 02:23:52;;;;;;;70.00;14.82;;;;;;;;;;6277607;22;20018;-60
2022/01/13 02:26:18;;;;;;;100.22;16.52;;;;;;;;;;6251456;22;20020;-60
2022/01/13 02:28:45;;;;;;;78.47;14.80;;;;;;;;;;6250286;22;20399;-61
2022/01/13 02:31:12;;;;;;;74.07;13.27;;;;;;;;;;6278119;22;20429;-60
2022/01/13 02:33:39;;;;;;;74.25;16.58;;;;;;;;;;6277983;22;20440;-60
2022/01/13 02:36:05;;;;;;;74.93;14.02;;;;;;;;;;6277284;22;20451;-60
2022/01/13 02:38:31;;;;;;;64.85;13.75;;;;;;;;;;6277999;22;20015;-60
2022/01/13 02:40:58;;;;;;;85.35;14.10;;;;;;;;;;6278348;22;20015;-61
2022/01/13 02:43:25;;;;;;;69.68;13.40;;;;;;;;;;6276956;22;20008;-61
2022/01/13 02:46:07;;;;;;;78.15;13.63;;;;;;;;;;6278663;22;20011;-61
2022/01/13 02:48:35;;;;;;;77.97;13.80;;;;;;;;;;6251222;22;20039;-61
2022/01/13 02:51:02;;;;;;;86.32;14.38;;;;;;;;;;6277941;22;20359;-61
2022/01/13 02:53:28;;;;;;;70.45;14.23;;;;;;;;;;6277924;22;20019;-61
2022/01/13 02:55:56;;;;;;;73.18;14.30;;;;;;;;;;6277841;22;20022;-61
2022/01/13 02:58:23;;;;;;;45.75;13.00;;;;;;;;;;6277846;22;20014;-61
2022/01/13 03:00:49;;;;;;;81.18;14.90;;;;;;;;;;6250876;22;20020;-61
2022/01/13 03:03:15;;;;;;;45.85;12.57;;;;;;;;;;6277149;22;20012;-61
2022/01/13 03:05:41;;;;;;;84.22;15.68;;;;;;;;;;6277379;22;20050;-61
2022/01/13 03:08:08;;;;;;;77.10;15.85;;;;;;;;;;6277794;22;20058;-61
2022/01/13 03:10:34;;;;;;;82.07;15.50;;;;;;;;;;6251424;22;20016;-61
2022/01/13 03:13:02;;;;;;;97.60;15.45;;;;;;;;;;6278142;22;20016;-61
2022/01/13 03:15:28;;;;;;;62.58;11.65;;;;;;;;;;6277609;22;20015;-60
2022/01/13 03:17:54;;;;;;;79.50;15.73;;;;;;;;;;6277246;22;20356;-61
2022/01/13 03:20:20;;;;;;;59.05;12.80;;;;;;;;;;6278284;22;20015;-61
2022/01/13 03:22:46;;;;;;;57.10;12.68;;;;;;;;;;6250269;22;20294;-61
2022/01/13 03:25:14;;;;;;;97.45;17.13;;;;;;;;;;6277235;22;20097;-60
2022/01/13 03:27:41;;;;;;;76.30;14.38;;;;;;;;;;6277086;22;20365;-61
2022/01/13 03:30:08;;;;;;;76.60;15.45;;;;;;;;;;6277490;22;20016;-61
2022/01/13 03:32:35;;;;;;;67.75;14.48;;;;;;;;;;6277127;22;20011;-61
2022/01/13 03:35:01;;;;;;;100.45;16.83;;;;;;;;;;6277498;22;20019;-61
2022/01/13 03:37:29;;;;;;;107.60;16.88;;;;;;;;;;6250424;22;20064;-61
2022/01/13 03:39:55;;;;;;;96.38;16.05;;;;;;;;;;6277139;22;20433;-61
2022/01/13 03:42:21;;;;;;;60.85;14.15;;;;;;;;;;6277771;22;20011;-61
2022/01/13 03:44:47;;;;;;;103.30;16.70;;;;;;;;;;6276518;22;20007;-60
2022/01/13 03:47:14;;;;;;;91.15;16.25;;;;;;;;;;6277036;22;20498;-60
2022/01/13 03:49:41;;;;;;;96.45;15.32;;;;;;;;;;6251590;22;20048;-61
2022/01/13 03:52:27;;;;;;;100.03;16.48;;;;;;;;;;6277342;22;20008;-61
2022/01/13 03:55:11;;;;;;;71.43;14.55;;;5.10;99.90;;;;;;6276097;22;20093;-61
2022/01/13 03:57:40;;;;;;;78.03;15.00;;;;;;;;;;6250165;22;20054;-61
2022/01/13 04:00:54;;;;;;;97.00;15.55;;;5.30;99.90;;;;;;6277376;22;20073;-61
2022/01/13 04:03:19;;;;;;;90.13;17.15;;;;;;;;;;6124441;23;20010;-61
2022/01/13 04:06:09;;;;;;;99.10;17.45;;;;;;;;;;6123917;23;20447;-61
2022/01/13 04:08:35;;;;;;;93.32;18.42;;;;;;;;;;6124406;23;20029;-61
2022/01/13 04:11:04;;;;;;;106.25;19.48;;;;;;;;;;6123962;23;20057;-60
2022/01/13 04:13:46;;;;;;;112.43;22.25;;;;;;;;;;6124397;23;20416;-59
2022/01/13 04:16:13;;;;;;;100.05;20.52;;;;;;;;;;6124246;23;20017;-60
2022/01/13 04:18:39;;;;;;;96.65;17.98;;;;;;;;;;6123586;23;20481;-60
2022/01/13 04:21:05;;;;;;;137.38;22.80;;;;;;;;;;6124345;23;20054;-61
2022/01/13 04:23:32;;;;;;;108.07;18.80;;;;;;;;;;6075717;23;20014;-60
2022/01/13 04:25:58;;;;;;;103.88;21.27;;;;;;;;;;6123855;23;20093;-60
2022/01/13 04:28:28;;;;;;;102.82;17.73;;;;;;;;;;6124848;23;20014;-60
2022/01/13 04:31:00;;;;;;;88.93;16.63;;;;;;;;;;6124148;23;20393;-59
2022/01/13 04:33:29;;;;;;;117.80;20.95;;;;;;;;;;6124155;23;20062;-60
2022/01/13 04:35:55;;;;;;;86.45;16.88;;;;;;;;;;6123900;23;20454;-61
2022/01/13 04:38:21;;;;;;;107.47;20.23;;;;;;;;;;6135247;22;20017;-60
2022/01/13 04:40:54;;;;;;;137.23;21.27;;;;;;;;;;6250400;22;20007;-60
2022/01/13 04:43:20;;;;;;;75.95;17.77;;;;;;;;;;6276788;22;20011;-61
2022/01/13 04:45:47;;;;;;;103.85;18.20;;;;;;;;;;6276962;22;20015;-60
2022/01/13 04:48:13;;;;;;;67.03;16.50;;;;;;;;;;6277861;22;20086;-60
2022/01/13 04:50:40;;;;;;;114.97;20.48;;;;;;;;;;6250110;22;20019;-60
2022/01/13 04:53:07;;;;;;;82.93;17.48;;;;;;;;;;6277720;22;20015;-61
2022/01/13 04:55:35;;;;;;;124.28;18.55;;;;;;;;;;6251262;22;20023;-61
2022/01/13 04:58:01;;;;;;;95.07;16.30;;;;;;;;;;6279016;22;20020;-61
2022/01/13 05:00:28;;;;;;;107.97;18.88;;;;;;;;;;6226200;22;20436;-60
2022/01/13 05:02:54;;;;;;;75.13;12.80;;;;;;;;;;6278602;22;20500;-61
2022/01/13 05:05:20;;;;;;;77.53;13.70;;;;;;;;;;6278313;22;20050;-60
2022/01/13 05:07:46;;;;;;;76.38;14.35;;;;;;;;;;6278384;22;20075;-60
2022/01/13 05:10:12;;;;;;;78.47;13.55;;;;;;;;;;6278856;22;20012;-60
2022/01/13 05:12:43;;;;;;;89.35;15.68;;;;;;;;;;6279657;22;20042;-60
2022/01/13 05:15:14;;;;;;;105.75;16.15;;;;;;;;;;6278201;22;20016;-60
2022/01/13 05:20:21;;;;;;;94.63;15.05;;;;;;;;;;6252744;22;20347;-60
2022/01/13 05:22:48;;;;;;;120.90;18.17;;;;;;;;;;6252628;22;20012;-60
2022/01/13 05:25:14;;;;;;;75.28;14.32;;;;;;;;;;6251411;22;20016;-60
2022/01/13 05:27:40;;;;;;;107.43;17.00;;;;;;;;;;6278723;22;20317;-60
2022/01/13 05:30:07;;;;;;;78.70;16.35;;;;;;;;;;6278311;22;20086;-60
2022/01/13 05:32:33;;;;;;;122.22;18.98;;;;;;;;;;6278985;22;20061;-60
2022/01/13 05:34:59;;;;;;;102.43;18.00;;;;;;;;;;6278200;22;20046;-60
2022/01/13 05:37:25;;;;;;;72.53;14.95;;;;;;;;;;6278611;22;20323;-61
2022/01/13 05:39:51;;;;;;;89.43;17.02;;;;;;;;;;6251560;22;20015;-60
2022/01/13 05:42:17;;;;;;;74.03;14.20;;;;;;;;;;6278898;22;20019;-60
2022/01/13 05:44:43;;;;;;;115.10;19.42;;;;;;;;;;6277920;22;20016;-60
2022/01/13 05:47:10;;;;;;;91.50;15.35;;;;;;;;;;6252484;22;20008;-61
2022/01/13 05:49:38;;;;;;;72.93;16.75;;;;;;;;;;6278438;22;20017;-61
2022/01/13 05:52:06;;;;;;;106.20;15.95;;;;;;;;;;6278494;22;20051;-60
2022/01/13 05:54:32;;;;;;;68.95;14.43;;;;;;;;;;6278455;22;20325;-60
2022/01/13 05:56:58;;;;;;;86.13;14.75;;;;;;;;;;6278743;22;20012;-60
2022/01/13 05:59:25;;;;;;;79.32;12.70;;;;;;;;;;6279371;22;20070;-60
2022/01/13 06:01:51;;;;;;;84.15;14.73;;;;;;;;;;6278396;22;20011;-61
2022/01/13 06:04:17;;;;;;;88.38;14.73;;;;;;;;;;6277236;22;20483;-60
2022/01/13 06:06:43;;;;;;;73.05;15.18;;;;;;;;;;6278533;22;20016;-61
2022/01/13 06:09:09;;;;;;;78.97;13.73;;;;;;;;;;6278258;22;20051;-60
2022/01/13 06:11:42;;;;;;;86.03;14.60;;;;;;;;;;6225952;22;20016;-60
2022/01/13 06:14:08;;;;;;;59.75;13.43;;;;;;;;;;6277666;22;20313;-60
2022/01/13 06:16:35;;;;;;;76.32;16.45;;;;;;;;;;6278893;22;20046;-61
2022/01/13 06:19:01;;;;;;;78.40;14.65;;;;;;;;;;6225385;22;20020;-60
2022/01/13 06:21:27;;;;;;;106.03;15.45;;;;;;;;;;6278433;22;20294;-60
2022/01/13 06:23:53;;;;;;;92.03;16.33;;;;;;;;;;6277371;22;20057;-61
2022/01/13 06:26:19;;;;;;;109.93;16.83;;;;;;;;;;6242099;22;20012;-61
2022/01/13 06:28:45;;;;;;;69.72;13.00;;;;;;;;;;6247312;23;20077;-61
2022/01/13 06:31:11;;;;;;;100.68;17.33;;;;;;;;;;6247392;23;20012;-61
2022/01/13 06:33:37;;;;;;;118.72;16.92;;;;;;;;;;6246785;23;20008;-61
2022/01/13 06:36:07;;;;;;;93.40;15.52;;;;;;;;;;6247020;23;20317;-61
2022/01/13 06:38:33;;;;;;;75.37;12.37;;;;;;;;;;6247001;23;20008;-61
2022/01/13 06:41:01;;;;;;;125.68;16.75;;;;;;;;;;6247358;23;20475;-60
2022/01/13 06:43:27;;;;;;;76.90;12.85;;;;;;;;;;6251965;22;20077;-61
2022/01/13 06:45:53;;;;;;;89.78;15.30;;;;;;;;;;6276556;22;20337;-61
2022/01/13 06:48:19;;;;;;;134.82;16.80;;;;;;;;;;6276948;22;20016;-61
2022/01/13 06:50:45;;;;;;;83.75;14.90;;;;;;;;;;6276691;22;20359;-61
2022/01/13 06:53:11;;;;;;;66.53;14.30;;;;;;;;;;6276799;22;20015;-61
2022/01/13 06:55:37;;;;;;;85.47;16.73;;;;;;;;;;6250132;22;20062;-61
2022/01/13 06:58:03;;;;;;;85.82;13.73;;;;;;;;;;6250382;22;20012;-61
2022/01/13 07:00:29;;;;;;;144.43;17.60;;;;;;;;;;6277018;22;20015;-61
2022/01/13 07:02:58;;;;;;;89.03;15.68;;;;;;;;;;6277976;22;20012;-61
2022/01/13 07:05:24;;;;;;;76.15;12.10;;;;;;;;;;6277341;22;20022;-61
2022/01/13 07:07:51;;;;;;;81.13;14.68;;;;;;;;;;6276645;22;20523;-61
2022/01/13 07:10:17;;;;;;;117.30;15.25;;;;;;;;;;6277284;22;20012;-61
2022/01/13 07:12:43;;;;;;;79.32;14.50;;;;;;;;;;6277229;22;20387;-61
2022/01/13 07:15:09;;;;;;;86.95;13.70;;;;;;;;;;6278310;22;20007;-61
2022/01/13 07:17:36;;;;;;;93.60;13.55;;;;;;;;;;6249914;22;20016;-60
2022/01/13 07:20:02;;;;;;;105.90;15.52;;;;;;;;;;6277609;22;20016;-60
2022/01/13 07:22:28;;;;;;;126.13;16.00;;;;;;;;;;6276385;22;20015;-60
2022/01/13 07:24:54;;;;;;;110.47;15.20;;;;;;;;;;6277126;22;20012;-61
2022/01/13 07:27:20;;;;;;;96.05;14.48;;;;;;;;;;6277560;22;20015;-60
2022/01/13 07:29:48;;;;;;;117.82;16.10;;;;;;;;;;6277110;22;20039;-60
2022/01/13 07:32:15;;;;;;;113.75;15.63;;;;;;;;;;6249867;22;20012;-60
2022/01/13 07:34:41;;;;;;;61.60;13.80;;;;;;;;;;6276872;22;20016;-62
2022/01/13 07:37:07;;;;;;;94.15;14.65;;;;;;;;;;6249217;22;20026;-61
2022/01/13 07:39:35;;;;;;;148.27;17.90;;;;;;;;;;6249680;22;20016;-60
2022/01/13 07:42:01;;;;;;;96.47;16.48;;;;;;;;;;6249983;22;20042;-60
2022/01/13 07:44:27;;;;;;;110.05;15.18;;;;;;;;;;6276483;22;20008;-61
2022/01/13 07:46:56;;;;;;;91.82;13.40;;;;;;;;;;6276555;22;20313;-61
2022/01/13 07:49:22;;;;;;;139.82;17.98;;;;;;;;;;6249487;22;20129;-60
2022/01/13 07:51:48;;;;;;;124.22;16.92;;;;;;;;;;6276765;22;20023;-60
2022/01/13 07:54:14;;;;;;;166.45;20.65;;;;;;;;;;6250286;22;20014;-60
2022/01/13 07:56:40;;;;;;;122.95;18.98;;;;;;;;;;6276700;22;20051;-60
2022/01/13 07:59:06;;;;;;;89.35;17.15;;;;;;;;;;6276386;22;20022;-61
2022/01/13 08:01:32;;;;;;;121.75;18.63;;;;;;;;;;6277190;22;20314;-62
2022/01/13 08:03:58;;;;;;;137.48;17.23;;;;;;;;;;6249579;22;20004;-62
2022/01/13 08:06:24;;;;;;;117.43;15.27;;;;;;;;;;6276740;22;20019;-62
2022/01/13 08:08:50;;;;;;;99.30;16.77;;;;;;;;;;6277192;22;20012;-62
2022/01/13 08:11:16;;;;;;;128.05;18.02;;;;;;;;;;6277240;22;20320;-62
2022/01/13 08:13:43;;;;;;;123.97;17.58;;;;;;;;;;6266887;22;20000;-63
2022/01/13 08:16:10;;;;;;;159.48;20.40;;;;;;;;;;6276886;22;20019;-62
2022/01/13 08:21:22;;;;;;;90.35;14.82;;;;;;;;;;6276029;22;20098;-61
2022/01/13 08:23:49;;;;;;;116.50;19.25;;;;;;;;;;6248933;22;20090;-61
2022/01/13 08:26:16;;;;;;;151.27;19.67;;;;;;;;;;6223462;22;20024;-62
2022/01/13 08:28:42;;;;;;;125.68;18.48;;;;;;;;;;6249615;22;20016;-61
2022/01/13 08:31:08;;;;;;;135.57;19.73;;;;;;;;;;6279210;22;20023;-61
2022/01/13 08:33:34;;;;;;;160.50;21.45;;;;;;;;;;6251133;22;20077;-61
2022/01/13 08:36:00;;;;;;;137.43;17.48;;;;;;;;;;6249940;22;20054;-62
2022/01/13 08:38:26;;;;;;;149.45;20.90;;;;;;;;;;6223620;22;20023;-61
2022/01/13 08:40:53;;;;;;;109.55;19.55;;;;;;;;;;6278637;22;20011;-60
2022/01/13 08:43:20;;;;;;;138.27;18.77;;;;;;;;;;6225138;22;20012;-60
2022/01/13 08:45:46;;;;;;;177.00;22.25;;;;;;;;;;6225794;22;20016;-61
2022/01/13 08:48:12;;;;;;;116.97;18.42;;;;;;;;;;6223696;22;20483;-65
2022/01/13 08:50:39;;;;;;;148.38;19.58;;;;;;;;;;6249107;22;20022;-60
2022/01/13 08:53:05;;;;;;;194.15;23.70;;;;;;;;;;6251471;22;20012;-61
2022/01/13 08:55:31;;;;;;;149.57;19.98;;;;;;;;;;6224022;22;20091;-61
2022/01/13 08:57:57;;;;;;;141.18;19.23;;;;;;;;;;6226370;22;20023;-61
2022/01/13 09:00:24;;;;;;;142.32;20.38;;;;;;;;;;6225392;22;20019;-61
2022/01/13 09:02:50;;;;;;;174.40;22.17;;;;;;;;;;6276891;22;20019;-66
2022/01/13 09:05:17;;;;;;;131.05;21.55;;;;;;;;;;6226229;22;20007;-61
2022/01/13 09:07:43;;;;;;;107.88;18.48;;;;;;;;;;6224399;22;20020;-61
2022/01/13 09:10:10;;;;;;;157.57;20.25;;;;;;;;;;6223734;22;20019;-62
2022/01/13 09:12:36;;;;;;;157.80;22.50;;;;;;;;;;6251805;22;20012;-61
2022/01/13 09:15:04;;;;;;;126.47;20.75;;;;;;;;;;6223893;22;20054;-61
2022/01/13 09:17:31;;;;;;;90.57;13.63;;;;;;;;;;6251356;22;20012;-61
2022/01/13 09:19:57;;;;;;;151.85;21.15;;;;;;;;;;6251355;22;20012;-60
2022/01/13 09:22:23;;;;;;;148.68;21.25;;;;;;;;;;6225440;22;20016;-61
2022/01/13 09:24:49;;;;;;;127.32;19.20;;;;;;;;;;6250712;22;20050;-61
2022/01/13 09:27:15;;;;;;;112.82;16.67;;;;;;;;;;6277500;22;20012;-61
2022/01/13 09:29:41;;;;;;;138.23;23.65;;;;;;;;;;6251403;22;20015;-61
2022/01/13 09:32:07;;;;;;;139.40;21.08;;;;;;;;;;6225215;22;20094;-62
2022/01/13 09:34:33;;;;;;;160.48;21.02;;;;;;;;;;6278531;22;20012;-61
2022/01/13 09:37:02;;;;;;;137.10;24.75;;;;;;;;;;6251385;22;20066;-61
2022/01/13 09:39:28;;;;;;;115.72;20.75;;;;;;;;;;6251846;22;20379;-61
2022/01/13 09:41:56;;;;;;;105.15;19.00;;;;;;;;;;6250345;22;20306;-61
2022/01/13 09:44:22;;;;;;;145.07;21.70;;;;;;;;;;6226036;22;20441;-61
2022/01/13 09:46:48;;;;;;;124.35;21.98;;;;;;;;;;6277732;22;20012;-60
2022/01/13 09:49:14;;;;;;;159.48;22.85;;;;;;;;;;6277811;22;20354;-61
2022/01/13 09:51:44;;;;;;;138.82;21.65;;;;;;;;;;6248735;22;20441;-67
2022/01/13 09:54:11;;;;;;;131.60;23.45;;;;;;;;;;6248669;22;20027;-61
2022/01/13 09:56:37;;;;;;;121.82;22.25;;;;;;;;;;6222856;22;20018;-60
2022/01/13 09:59:03;;;;;;;118.65;19.40;;;;;;;;;;6276739;22;20012;-61
2022/01/13 10:01:29;;;;;;;133.60;22.23;;;;;;;;;;6224608;22;20340;-62
2022/01/13 10:03:58;;;;;;;124.30;21.08;;;;;;;;;;6277692;22;20018;-60
2022/01/13 10:06:24;;;;;;;125.65;22.65;;;;;;;;;;6275740;22;20011;-61
2022/01/13 10:08:50;;;;;;;162.30;26.33;;;;;;;;;;6277664;22;20101;-61
2022/01/13 10:11:26;;;;;;;156.82;25.17;;;;;;;;;;6223573;22;20329;-61
2022/01/13 10:14:05;;;;;;;113.45;20.08;;;;;;;;;;6247046;22;20531;-61
2022/01/13 10:16:31;;;;;;;125.78;20.38;;;;;;;;;;6222032;22;20421;-61
2022/01/13 10:18:57;;;;;;;131.85;22.70;;;;;;;;;;6222904;22;20043;-62
2022/01/13 10:21:24;;;;;;;85.45;16.88;;;;;;;;;;6277099;22;20016;-61
2022/01/13 10:24:10;;;;;;;157.60;26.23;;;;;;;;;;6276965;22;20020;-62
2022/01/13 10:26:36;;;;;;;129.77;26.42;;;;;;;;;;6250185;22;20015;-61
2022/01/13 10:29:04;;;;;;;108.32;20.67;;;;;;;;;;6224796;22;20018;-61
2022/01/13 10:31:43;;;;;;;156.80;25.38;;;;;;;;;;6225146;22;20047;-61
2022/01/13 10:34:26;;;;;;;146.77;23.73;;;;;;;;;;6225485;22;20088;-61
2022/01/13 10:37:03;;;;;;;115.93;18.58;;;;;;;;;;6247513;22;20015;-63
2022/01/13 10:39:51;;;;;;;126.38;20.67;;;6.40;99.90;;;;;;6225052;22;20019;-61
2022/01/13 10:43:05;;;;;;;153.18;23.70;;;;;;;;;;6274116;22;20495;-67
2022/01/13 10:45:19;;;;;;;135.27;22.17;;;;;;;;;;6245982;22;20016;-62
2022/01/13 10:48:03;;;;;;;147.48;23.75;;;;;;;;;;6224243;22;20020;-61
2022/01/13 10:50:33;;;;;;;115.07;22.17;;;;;;;;;;6250746;22;20046;-61
2022/01/13 10:53:03;;;;;;;128.52;23.45;;;;;;;;;;6248995;22;20019;-61
2022/01/13 10:55:29;;;;;;;129.40;21.42;;;;;;;;;;6225402;22;20022;-61
2022/01/13 10:57:55;;;;;;;115.47;21.25;;;;;;;;;;6223401;22;20018;-61
2022/01/13 11:00:23;;;;;;;125.60;23.25;;;;;;;;;;6248366;22;20019;-61
2022/01/13 11:02:59;;;;;;;119.95;22.85;;;;;;;;;;6224286;22;20039;-61
2022/01/13 11:05:26;;;;;;;114.40;21.23;;;;;;;;;;6278362;22;20012;-62
2022/01/13 11:07:52;;;;;;;131.60;23.10;;;;;;;;;;6222888;22;20022;-62
2022/01/13 11:10:18;;;;;;;118.93;22.33;;;;;;;;;;6225381;22;20015;-61
2022/01/13 11:12:49;;;;;;;130.82;25.00;;;;;;;;;;6250385;22;20015;-61
2022/01/13 11:15:17;;;;;;;121.10;26.38;;;;;;;;;;6247555;22;20047;-61
2022/01/13 11:17:45;;;;;;;119.38;24.17;;;;;;;;;;6224010;22;20558;-61
2022/01/13 11:20:15;;;;;;;119.35;26.45;;;;;;;;;;6223542;22;20047;-61
2022/01/13 11:22:44;;;;;;;121.47;27.83;;;;;;;;;;6274472;22;20074;-61
2022/01/13 11:25:11;;;;;;;120.75;24.27;;;;;;;;;;6224012;22;20012;-61
2022/01/13 11:27:38;;;;;;;101.22;20.58;;;;;;;;;;6225191;22;20015;-61
2022/01/13 11:30:05;;;;;;;114.45;23.00;;;;;;;;;;6225122;22;20019;-61
2022/01/13 11:32:31;;;;;;;136.48;25.27;;;;;;;;;;6224221;22;20074;-62
2022/01/13 11:34:58;;;;;;;130.57;24.23;;;;;;;;;;6249652;22;20020;-61
2022/01/13 11:37:31;;;;;;;131.13;26.35;;;;;;;;;;6249590;22;20042;-61
2022/01/13 11:39:57;;;;;;;108.38;25.75;;;;;;;;;;6225108;22;20470;-61
2022/01/13 11:42:24;;;;;;;113.65;26.40;;;;;;;;;;6247848;22;20065;-62
2022/01/13 11:45:10;;;;;;;110.20;25.42;;;6.90;99.90;;;;;;6246800;22;20027;-62
2022/01/13 11:47:36;;;;;;;122.25;28.88;;;;;;;;;;6250457;22;20073;-61
2022/01/13 11:50:30;;;;;;;116.88;28.90;;;;;;;;;;6249984;22;20325;-60
2022/01/13 11:52:57;;;;;;;102.40;25.95;;;;;;;;;;6278159;22;20019;-61
2022/01/13 11:55:25;;;;;;;125.93;31.88;;;;;;;;;;6276449;22;20012;-61
2022/01/13 11:57:52;;;;;;;85.38;22.98;;;;;;;;;;6277348;22;20018;-60
2022/01/13 12:00:17;;;;;;;106.13;30.33;;;;;;;;;;6251265;22;20055;-61
2022/01/13 12:02:44;;;;;;;124.05;31.38;;;;;;;;;;6277628;22;20333;-61
2022/01/13 12:05:14;;;;;;;114.00;29.88;;;;;;;;;;6223796;22;20008;-61
2022/01/13 12:07:57;;;;;;;112.55;29.50;;;;;;;;;;6226089;22;20016;-61
2022/01/13 12:10:37;;;;;;;119.63;33.53;;;;;;;;;;6224778;22;20091;-61
2022/01/13 12:13:36;;;;;;;90.28;26.42;;;;;;;;;;6250234;22;20047;-61
2022/01/13 12:16:02;;;;;;;108.05;30.65;;;;;;;;;;6183370;22;20436;-61
2022/01/13 12:18:59;;;;;;;98.38;29.20;;;7.00;99.90;;;;;;6224344;22;20045;-61
2022/01/13 12:21:34;;;;;;;75.60;25.60;;;;;;;;;;6201156;22;20045;-61
2022/01/13 12:24:00;;;;;;;95.15;36.00;;;;;;;;;;6224726;22;20053;-61
2022/01/13 12:26:32;;;;;;;73.90;23.13;;;;;;;;;;6224108;22;20022;-60
2022/01/13 12:29:15;;;;;;;79.97;24.63;;;;;;;;;;6276159;22;20043;-66
2022/01/13 12:31:56;;;;;;;86.35;28.80;;;;;;;;;;6224243;22;20488;-61
2022/01/13 12:34:28;;;;;;;94.05;32.60;;;;;;;;;;6277151;22;20011;-61
2022/01/13 12:36:55;;;;;;;77.70;28.00;;;;;;;;;;6276674;22;20045;-60
2022/01/13 12:39:21;;;;;;;88.18;31.67;;;;;;;;;;6223782;22;20023;-61
2022/01/13 12:41:58;;;;;;;87.57;30.58;;;;;;;;;;6224111;22;20016;-60
2022/01/13 12:47:10;;;;;;;74.72;25.90;;;;;;;;;;6275576;22;20015;-61
2022/01/13 12:49:36;;;;;;;79.57;31.70;;;;;;;;;;6247915;22;20016;-60
2022/01/13 12:52:03;;;;;;;88.05;33.00;;;;;;;;;;6222787;22;20071;-60
2022/01/13 12:54:29;;;;;;;66.35;25.83;;;;;;;;;;6248033;22;20070;-60
2022/01/13 12:56:55;;;;;;;70.25;30.90;;;;;;;;;;6274923;22;20015;-60
2022/01/13 12:59:23;;;;;;;68.90;25.42;;;;;;;;;;6275263;22;20047;-60
2022/01/13 13:01:49;;;;;;;77.55;30.92;;;;;;;;;;6222546;22;20016;-62
2022/01/13 13:04:15;;;;;;;79.35;31.05;;;;;;;;;;6247910;22;20016;-61
2022/01/13 13:06:44;;;;;;;79.10;29.77;;;;;;;;;;6275303;22;20482;-60
2022/01/13 13:09:14;;;;;;;65.93;30.10;;;;;;;;;;6222218;22;20133;-62
2022/01/13 13:11:41;;;;;;;;;;;;;;;;;;6248321;22;20528;-60
2022/01/13 13:14:15;;;;;;;78.13;31.20;;;;;;;;;;6241386;23;19949;-61
2022/01/13 13:16:45;;;;;;;70.68;30.13;;;;;;;;;;6244527;23;20095;-61
2022/01/13 13:19:11;;;;;;;63.60;29.40;;;;;;;;;;6218712;23;20020;-60
2022/01/13 13:21:38;;;;;;;63.47;27.63;;;;;;;;;;6221065;23;20015;-60
2022/01/13 13:24:04;;;;;;;79.25;33.00;;;;;;;;;;6196144;23;20012;-60
2022/01/13 13:26:30;;;;;;;51.30;22.98;;;;;;;;;;6247834;23;20016;-60
2022/01/13 13:28:56;;;;;;;68.50;27.80;;;;;;;;;;6220903;23;20027;-60
2022/01/13 13:31:23;;;;;;;72.68;30.13;;;;;;;;;;6220369;23;20090;-60
2022/01/13 13:33:55;;;;;;;74.30;29.60;;;;;;;;;;6220496;23;20023;-60
2022/01/13 13:36:26;;;;;;;60.67;26.63;;;;;;;;;;6246444;23;20019;-60
2022/01/13 13:38:54;;;;;;;60.47;27.92;;;;;;;;;;6246135;23;20012;-60
2022/01/13 13:41:21;;;;;;;70.68;27.65;;;;;;;;;;6219436;23;20023;-61
2022/01/13 13:43:47;;;;;;;66.32;30.00;;;;;;;;;;6215338;23;20016;-61
2022/01/13 13:46:15;;;;;;;65.25;28.58;;;;;;;;;;6244436;23;20023;-61
2022/01/13 13:48:45;;;;;;;66.80;29.23;;;;;;;;;;6244828;23;20008;-60
2022/01/13 13:51:16;;;;;;;74.10;33.08;;;;;;;;;;6241252;23;20019;-61
2022/01/13 13:54:00;;;;;;;53.67;28.85;;;;;;;;;;6217370;23;20018;-60
2022/01/13 13:56:26;;;;;;;70.22;29.33;;;;;;;;;;6245628;23;20048;-61
2022/01/13 13:58:52;;;;;;;62.83;27.45;;;;;;;;;;6243889;23;20422;-60
2022/01/13 14:01:18;;;;;;;59.25;27.58;;;;;;;;;;6246659;23;20275;-61
2022/01/13 14:03:46;;;;;;;68.07;28.45;;;;;;;;;;6247102;23;20023;-60
2022/01/13 14:06:32;;;;;;;42.65;20.02;;;;;;;;;;6220831;23;20024;-60
2022/01/13 14:08:58;;;;;;;52.58;23.33;;;;;;;;;;6245566;23;20052;-60
2022/01/13 14:11:24;;;;;;;51.05;22.88;;;;;;;;;;6246172;23;20016;-60
2022/01/13 14:14:08;;;;;;;55.38;25.23;;;;;;;;;;6247007;22;20079;-61
2022/01/13 14:16:35;;;;;;;57.22;26.23;;;;;;;;;;6226820;22;20020;-60
2022/01/13 14:19:12;;;;;;;50.83;23.88;;;;;;;;;;6225420;22;20054;-60
2022/01/13 14:21:51;;;;;;;57.05;27.52;;;;;;;;;;6224544;22;20011;-61
2022/01/13 14:24:26;;;;;;;64.75;27.90;;;;;;;;;;6223851;22;20015;-60
2022/01/13 14:26:52;;;;;;;57.28;25.15;;;;;;;;;;6225681;22;20016;-58
2022/01/13 14:29:22;;;;;;;69.07;27.35;;;;;;;;;;6277438;22;20460;-58
2022/01/13 14:31:49;;;;;;;63.60;27.45;;;;;;;;;;6225109;22;20012;-58
2022/01/13 14:34:25;;;;;;;69.38;28.55;;;;;;;;;;6224595;22;20016;-58
2022/01/13 14:36:51;;;;;;;70.18;29.40;;;;;;;;;;6250276;22;20015;-58
2022/01/13 14:39:17;;;;;;;73.95;29.13;;;;;;;;;;6249818;22;20019;-60